Hanes, North Carolina
Current Conditions -  °F | °C
As of 1:54 PM on Thursday 30 Oct 2014 (Local Time) from KINT Reporting Station
Clear Clear  
Wind Chill: 63°   Ceiling: Unl
Heat Index: 63°   Visibility: 10mi
Dew Point: 32°   Wind: 7mph
Humidity: 31%   Direction: NA
Pressure: 30.03"   Gusts: NA
Location:  36.0595°N, 80.3192°W
Report Text: KINT 301754Z VRB06KT 10SM CLR 17/00 A3003 RMK AO2 SLP164 T01720000 10172 20072 58021
Loading
Personal Weather Stations






























Interactive Weather Map
Tropical Storm Tracking
New forecast layout! Learn more

10-Day Weather Forecast

Advertisements
Track Severe Weather on mobile